Dirección General De Aeronáutica Civil

Dirección Meteorológica de Chile - Servicios Climáticos

Informe General de Control de Calidad de la Estación

Listado de niveles de control de calidad para algunos parámetros
Estación Punta Arenas Unidad Aeropolicial (520014)
Fecha de Revisión de los datos :

Elementos

Registros Niveles de Control Total
Nivel 0 Nivel 1 Nivel 2 Nivel 3 Errores Porcentaje
01 Temperatura del Aire Seco 62.102 0 . 0 . 0 . 0 . 0 0.00 %
02 Temperatura de Rocío 62.102 0 . 0 . 0 . 0 . 0 0.00 %
03 Humedad Relativa del Aire 62.244 0 . 0 . 0 . 0 . 0 0.00 %
04 Temperatura Máxima PM 2.587 0 . 0 . 16 0.62 % 0 . 16 0.62 %
05 Temperatura Mínima AM 2.596 0 . 0 . 10 0.39 % 0 . 10 0.39 %
06 Viento a 10 m. de Altura 62.252 0 . 0 . 0 . 0 . 0 0.00 %
07 Agua Caida, Acumulada 6 Horas 10.385 0 . 0 . 0 . 0 . 0 0.00 %
08 Presión Atm. a Nivel de Estación (QFE) 62.246 0 . 0 . 0 . 0 . 0 0.00 %
09 Presión Atm. a Nivel Medio del Mar (QFF) 62.246 0 . 0 . 0 . 0 . 0 0.00 %
10 Presión Atm. Estándar OACI (QNH) 62.246 0 . 0 . 0 . 0 . 0 0.00 %

Totales

451.006 . 0.0000 % . 0.0000 % . 0.0058 % . 0.0000 % 26 0.0058 %

Detalle de Errores Encontrados

Nivel Fecha del Dato Descripción Información Error Fecha Ingreso
2 2019-06-14 00:00:00 Temperatura 2.8 del 13-06-2019 18:00, Mayor que la Máxima 1.3 14-06-2019 00:00 2.8 -- 1.3 2019-06-14 00:20:00
2 2019-12-21 00:00:00 Temperatura 14.4 del 20-12-2019 21:00, Mayor que la Máxima 11.9 21-12-2019 00:00 14.4 -- 11.9 2022-05-20 19:17:00
2 2020-12-02 00:00:00 Temperatura 9.0 del 01-12-2020 17:00, Mayor que la Máxima 8.1 02-12-2020 00:00 9.0 -- 8.1 2020-12-02 11:31:00
2 2020-12-23 00:00:00 Temperatura 13.2 del 22-12-2020 19:00, Mayor que la Máxima 9.5 23-12-2020 00:00 13.2 -- 9.5 2020-12-23 10:11:00
2 2020-12-27 00:00:00 Temperatura 18.0 del 26-12-2020 19:00, Mayor que la Máxima 15.4 27-12-2020 00:00 18.0 -- 15.4 2020-12-27 00:20:00
2 2020-12-28 00:00:00 Temperatura 18.3 del 27-12-2020 18:00, Mayor que la Máxima 14.0 28-12-2020 00:00 18.3 -- 14.0 2020-12-28 00:20:00
2 2020-12-29 00:00:00 Temperatura 15.9 del 28-12-2020 18:00, Mayor que la Máxima 9.7 29-12-2020 00:00 15.9 -- 9.7 2020-12-29 00:20:00
2 2020-12-30 00:00:00 Temperatura 14.8 del 29-12-2020 19:00, Mayor que la Máxima 9.5 30-12-2020 00:00 14.8 -- 9.5 2020-12-30 10:31:00
2 2021-01-03 00:00:00 Temperatura 14.7 del 02-01-2021 17:00, Mayor que la Máxima 12.7 03-01-2021 00:00 14.7 -- 12.7 2021-01-04 13:31:00
2 2021-01-08 00:00:00 Temperatura 13.9 del 07-01-2021 20:00, Mayor que la Máxima 10.1 08-01-2021 00:00 13.9 -- 10.1 2021-01-08 00:51:00
2 2021-01-09 00:00:00 Temperatura 14.3 del 08-01-2021 19:00, Mayor que la Máxima 10.3 09-01-2021 00:00 14.3 -- 10.3 2021-01-09 03:51:00
2 2021-01-10 00:00:00 Temperatura 13.0 del 09-01-2021 18:00, Mayor que la Máxima 10.2 10-01-2021 00:00 13.0 -- 10.2 2021-01-10 00:21:00
2 2021-01-11 00:00:00 Temperatura 9.4 del 10-01-2021 13:00, Mayor que la Máxima 8.5 11-01-2021 00:00 9.4 -- 8.5 2021-01-11 00:20:00
2 2021-01-13 00:00:00 Temperatura 12.3 del 12-01-2021 18:00, Mayor que la Máxima 8.1 13-01-2021 00:00 12.3 -- 8.1 2021-01-13 00:31:00
2 2021-01-19 00:00:00 Temperatura 14.1 del 18-01-2021 20:00, Mayor que la Máxima 11.7 19-01-2021 00:00 14.1 -- 11.7 2021-01-19 00:20:00
2 2023-09-18 00:00:00 Temperatura 4.6 del 17-09-2023 18:00, Mayor que la Máxima 3.2 18-09-2023 00:00 4.6 -- 3.2 2023-09-18 14:36:00
2 2020-12-11 12:00:00 Temperatura 5.8 del 11-12-2020 07:00, Menor que la Mínima 6.7 11-12-2020 12:00 5.8 -- 6.7 2020-12-11 13:11:00
2 2020-12-26 12:00:00 Temperatura 9.2 del 26-12-2020 09:00, Menor que la Mínima 13.6 26-12-2020 12:00 9.2 -- 13.6 2020-12-26 12:20:00
2 2020-12-28 12:00:00 Temperatura 8.6 del 28-12-2020 05:00, Menor que la Mínima 10.9 28-12-2020 12:00 8.6 -- 10.9 2022-05-20 19:20:00
2 2020-12-29 12:00:00 Temperatura 6.2 del 29-12-2020 09:00, Menor que la Mínima 10.4 29-12-2020 12:00 6.2 -- 10.4 2020-12-29 12:20:00
2 2021-01-01 12:00:00 Temperatura 10.5 del 01-01-2021 09:00, Menor que la Mínima 13.2 01-01-2021 12:00 10.5 -- 13.2 2021-01-01 12:20:00
2 2021-01-01 12:00:00 Temperatura 10.5 del 01-01-2021 09:00, Menor que la Mínima 13.2 01-01-2021 12:00 10.5 -- 13.2 2021-01-01 12:20:00
2 2021-01-02 12:00:00 Temperatura 11.4 del 02-01-2021 07:00, Menor que la Mínima 12.1 02-01-2021 12:00 11.4 -- 12.1 2021-01-02 12:20:00
2 2021-01-10 12:00:00 Temperatura 4.5 del 10-01-2021 09:00, Menor que la Mínima 7.6 10-01-2021 12:00 4.5 -- 7.6 2021-01-10 12:20:00
2 2021-01-11 12:00:00 Temperatura 3.5 del 11-01-2021 08:00, Menor que la Mínima 6.6 11-01-2021 12:00 3.5 -- 6.6 2021-01-11 12:20:00
2 2021-01-16 12:00:00 Temperatura 10.3 del 16-01-2021 05:00, Menor que la Mínima 10.5 16-01-2021 12:00 10.3 -- 10.5 2021-01-18 02:31:00
Errores del Nivel 26
Informe generado el 23-02-2024 09:45
Requerimiento: RE6001